Time;durP1;ratioP1;P1;durP2;ratioP2;P2;SDS_P1;SDS_P2;PMS_P1;PMS_P2;Temp;Humidity;BMP_temperature;BMP_pressure;BME280_temperature;BME280_humidity;BME280_pressure;Samples;Min_cycle;Max_cycle;Signal;HPM_P1;HPM_P2
2021/08/16 00:03:07;;;;;;;6.90;4.28;;;;;;;22.03;74.94;92504.78;5013499;28;20046;-93
2021/08/16 00:05:45;;;;;;;4.97;3.30;;;;;;;21.98;75.53;92499.78;5001423;28;20466;-94
2021/08/16 00:08:21;;;;;;;6.57;3.97;;;;;;;21.90;75.90;92487.44;4984764;28;20133;-94
2021/08/16 00:10:47;;;;;;;11.10;4.28;;;;;;;21.94;75.67;92493.63;4982072;28;20053;-95
2021/08/16 00:13:41;;;;;;;;;;;;;;;;;;;;;
2021/08/16 00:16:33;;;;;;;;;;;;;;;;;;;;;
2021/08/16 00:19:10;;;;;;;5.25;3.50;;;;;;;21.84;75.65;92497.63;4990795;28;20046;-94
2021/08/16 00:21:45;;;;;;;7.90;4.22;;;;;;;21.87;75.71;92493.50;5002281;28;20049;-94
2021/08/16 00:24:24;;;;;;;;;;;;;;;;;;;;;
2021/08/16 00:27:09;;;;;;;6.00;3.97;;;;;;;21.86;75.60;92502.59;4996922;28;20381;-94
2021/08/16 00:29:53;;;;;;;;;;;;;;;;;;;;;
2021/08/16 00:32:22;;;;;;;7.78;4.47;;;;;;;21.89;75.73;92483.25;4997198;28;20054;-92
2021/08/16 00:35:08;;;;;;;;;;;;;;;;;;;;;
2021/08/16 00:37:50;;;;;;;10.48;3.90;;;;;;;21.96;75.31;92486.03;5024526;28;20481;-95
2021/08/16 00:40:24;;;;;;;8.60;4.65;;;;;;;21.98;75.37;92487.22;4986346;28;20092;-93
2021/08/16 00:42:50;;;;;;;6.53;4.30;;;;;;;21.95;75.53;92484.47;5000170;28;20045;-95
2021/08/16 00:45:19;;;;;;;8.43;4.13;;;;;;;21.94;75.38;92488.28;5014124;28;20042;-94
2021/08/16 00:47:57;;;;;;;;;;;;;;;;;;;;;
2021/08/16 00:50:33;;;;;;;6.70;3.80;;;;;;;21.91;75.85;92483.66;4981088;28;20058;-94
2021/08/16 00:53:15;;;;;;;7.55;4.10;;;;;;;21.92;75.58;92479.88;4981980;28;20046;-93
2021/08/16 00:55:54;;;;;;;7.15;4.38;;;;;;;21.95;75.74;92484.47;4980256;28;20073;-92
2021/08/16 00:58:26;;;;;;;6.10;3.90;;;;;;;21.99;76.57;92498.63;4979792;28;20089;-94
2021/08/16 01:01:04;;;;;;;10.07;5.15;;;;;;;21.95;76.55;92490.59;4978336;28;20068;-94
2021/08/16 01:03:54;;;;;;;9.23;4.18;;;;;;;22.00;76.71;92492.19;4964200;28;20057;-94
2021/08/16 01:06:22;;;;;;;6.28;4.07;;;;;;;21.99;76.65;92488.75;4963515;28;20062;-94
2021/08/16 01:09:19;;;;;;;7.07;3.97;;;;;;;22.06;76.61;92495.31;4980651;28;20043;-94
2021/08/16 01:11:54;;;;;;;7.03;3.95;;;;;;;22.01;76.82;92499.06;4963687;28;20049;-94
2021/08/16 01:14:32;;;;;;;7.15;4.40;;;;;;;22.01;76.49;92499.06;4979593;28;20443;-94
2021/08/16 01:17:14;;;;;;;9.77;4.97;;;;;;;21.98;76.31;92499.78;4963524;28;20078;-94
2021/08/16 01:19:58;;;;;;;8.02;4.22;;;;;;;21.98;76.88;92502.44;4981253;28;20056;-92
2021/08/16 01:23:00;;;;;;;;;;;;;;;;;;;;;
2021/08/16 01:25:34;;;;;;;7.95;3.90;;;;;;;22.01;76.18;92504.38;4978694;28;20157;-94
2021/08/16 01:28:05;;;;;;;6.43;3.85;;;;;;;21.99;75.79;92495.97;4979159;28;20129;-93
2021/08/16 01:30:34;;;;;;;6.35;4.32;;;;;;;21.97;75.69;92493.66;4963122;28;20084;-94
2021/08/16 01:33:32;;;;;;;8.80;4.60;;;;;;;21.98;75.75;92495.22;4980799;28;20023;-94
2021/08/16 01:36:02;;;;;;;7.80;4.65;;;;;;;21.97;76.85;92501.66;4993461;28;20042;-94
2021/08/16 01:38:36;;;;;;;9.98;4.25;;;;;;;21.95;76.66;92500.47;4981978;28;20037;-94
2021/08/16 01:41:25;;;;;;;6.43;4.35;;;;;;;22.02;76.58;92500.56;4978160;28;20054;-93
2021/08/16 01:44:10;;;;;;;8.32;5.57;;;;;;;21.96;76.72;92481.47;4975472;28;20050;-95
2021/08/16 01:47:07;;;;;;;6.40;4.10;;;;;;;21.93;76.58;92478.72;4983156;28;20133;-94
2021/08/16 01:49:41;;;;;;;7.50;4.00;;;;;;;21.90;76.69;92461.56;4997790;28;20096;-94
2021/08/16 01:52:23;;;;;;;6.60;3.97;;;;;;;21.89;76.99;92464.63;4982114;28;20104;-94
2021/08/16 01:55:09;;;;;;;5.95;3.00;;;;;;;21.88;77.03;92460.38;4980371;28;20038;-93
2021/08/16 01:57:47;;;;;;;;;;;;;;;;;;;;;
2021/08/16 02:00:44;;;;;;;8.13;4.38;;;;;;;21.82;77.29;92439.38;4981543;28;20054;-93
2021/08/16 02:03:33;;;;;;;5.38;3.45;;;;;;;21.69;78.51;92431.94;4978552;28;20049;-95
2021/08/16 02:06:14;;;;;;;;;;;;;;;;;;;;;
2021/08/16 02:08:43;;;;;;;7.82;4.50;;;;;;;21.68;79.28;92423.16;5010775;28;20043;-95
2021/08/16 02:11:24;;;;;;;;;;;;;;;;;;;;;
2021/08/16 02:13:57;;;;;;;10.07;4.43;;;;;;;21.67;79.51;92410.22;5010196;28;20046;-94
2021/08/16 02:16:25;;;;;;;7.32;4.65;;;;;;;21.64;80.12;92401.06;4977776;28;20057;-95
2021/08/16 02:18:56;;;;;;;7.15;4.32;;;;;;;21.63;80.92;92408.25;4978377;28;20705;-94
2021/08/16 02:21:26;;;;;;;9.60;4.80;;;;;;;21.63;81.54;92412.81;4979103;28;20412;-94
2021/08/16 02:24:12;;;;;;;10.27;4.47;;;;;;;21.56;83.38;92402.06;4968134;28;20412;-95
2021/08/16 02:26:57;;;;;;;9.57;5.30;;;;;;;21.56;82.46;92410.03;4950004;28;20049;-95
2021/08/16 02:29:32;;;;;;;7.82;4.68;;;;;;;21.48;82.31;92411.03;4962399;28;20054;-94
2021/08/16 02:32:11;;;;;;;7.38;4.93;;;;;;;21.44;81.82;92413.66;4992977;28;20046;-94
2021/08/16 02:34:56;;;;;;;8.75;4.15;;;;;;;21.36;82.06;92386.09;4992083;28;20538;-95
2021/08/16 02:37:42;;;;;;;;;;;;;;;;;;;;;
2021/08/16 02:40:31;;;;;;;11.48;4.65;;;;;;;21.28;82.78;92389.78;4993205;28;20137;-96
2021/08/16 02:43:05;;;;;;;7.57;5.00;;;;;;;21.28;82.82;92400.44;4981395;28;20407;-95
2021/08/16 02:45:48;;;;;;;;;;;;;;;;;;;;;
2021/08/16 02:48:34;;;;;;;9.55;4.57;;;;;;;21.14;83.59;92368.22;5013236;28;20052;-93
2021/08/16 02:51:25;;;;;;;7.88;4.68;;;;;;;21.13;83.34;92367.47;4996212;28;20057;-93
2021/08/16 02:54:06;;;;;;;8.43;3.90;;;;;;;21.17;84.59;92383.50;4994713;28;20046;-93
2021/08/16 02:56:37;;;;;;;6.13;4.40;;;;;;;21.15;84.02;92391.84;4977760;28;20050;-94
2021/08/16 02:59:13;;;;;;;5.93;3.80;;;;;;;21.20;84.05;92409.41;4977859;28;20089;-95
2021/08/16 03:01:55;;;;;;;13.32;4.90;;;;;;;21.18;83.92;92412.41;4977536;28;20113;-95
2021/08/16 03:04:34;;;;;;;7.50;4.85;;;;;;;21.20;83.66;92412.06;4987015;28;20090;-93
2021/08/16 03:07:18;;;;;;;5.20;3.97;;;;;;;21.21;84.13;92426.94;4978757;28;20053;-94
2021/08/16 03:09:47;;;;;;;6.25;4.13;;;;;;;21.14;83.86;92437.44;4993935;28;20570;-94
2021/08/16 03:12:19;;;;;;;6.87;4.23;;;;;;;20.98;83.84;92438.31;4993465;28;20070;-95
2021/08/16 03:14:55;;;;;;;6.47;4.18;;;;;;;20.90;83.73;92443.84;5007934;28;20129;-94
2021/08/16 03:17:31;;;;;;;;;;;;;;;;;;;;;
2021/08/16 03:20:07;;;;;;;10.50;4.68;;;;;;;20.88;84.35;92441.53;5012731;28;20128;-95
2021/08/16 03:22:45;;;;;;;6.68;3.90;;;;;;;20.96;83.93;92426.47;4996551;28;20048;-94
2021/08/16 03:25:27;;;;;;;;;;;;;;;;;;;;;
2021/08/16 03:28:28;;;;;;;;;;;;;;;;;;;;;
2021/08/16 03:31:35;;;;;;;5.40;3.22;;;;;;;21.02;81.70;92414.41;5003072;28;20046;-92
2021/08/16 03:34:03;;;;;;;6.15;3.90;;;;;;;21.05;81.49;92412.94;4978760;28;20046;-92
2021/08/16 03:36:37;;;;;;;6.80;3.55;;;;;;;21.03;80.71;92412.50;4977157;28;20033;-93
2021/08/16 03:39:33;;;;;;;4.45;2.42;;;;;;;21.05;79.34;92410.28;5011665;28;20054;-94
2021/08/16 03:42:29;;;;;;;7.82;3.10;;;;;;;21.07;79.04;92419.44;5011620;28;20036;-93
2021/08/16 03:45:09;;;;;;;3.15;2.35;;;;;;;21.02;78.68;92409.09;4995891;28;20118;-96
2021/08/16 03:47:38;;;;;;;5.65;2.72;;;;;;;21.00;79.06;92406.78;5006047;28;20499;-94
2021/08/16 03:50:28;;;;;;;3.88;2.20;;;;;;;21.06;78.75;92407.28;4977117;28;20085;-93
2021/08/16 03:53:04;;;;;;;;;;;;;;;;;;;;;
2021/08/16 03:55:40;;;;;;;6.85;3.08;;;;;;;21.05;78.27;92407.63;4992664;28;20102;-95
2021/08/16 03:58:16;;;;;;;4.03;2.42;;;;;;;21.11;78.16;92416.84;5004729;28;20044;-94
2021/08/16 04:00:59;;;;;;;3.70;2.40;;;;;;;21.05;78.22;92397.72;4996275;28;20050;-94
2021/08/16 04:03:34;;;;;;;4.60;2.70;;;;;;;21.04;79.34;92396.22;4961708;28;20054;-94
2021/08/16 04:06:25;;;;;;;9.18;2.90;;;;;;;21.07;81.28;92410.69;4980561;28;20046;-94
2021/08/16 04:08:59;;;;;;;5.70;2.78;;;;;;;20.96;80.92;92403.31;4960376;28;20428;-93
2021/08/16 04:11:38;;;;;;;;;;;;;;;;;;;;;
2021/08/16 04:14:09;;;;;;;8.55;2.97;;;;;;;20.89;81.38;92387.19;4962285;28;20047;-94
2021/08/16 04:16:48;;;;;;;6.70;3.27;;;;;;;20.85;81.11;92383.72;4963255;28;20154;-94
2021/08/16 04:19:18;;;;;;;7.40;3.22;;;;;;;20.81;81.05;92393.53;4997329;28;20082;-94
2021/08/16 04:21:58;;;;;;;4.28;2.42;;;;;;;20.79;82.07;92409.06;4969137;28;20133;-92
2021/08/16 04:24:37;;;;;;;4.97;2.80;;;;;;;20.78;81.99;92424.25;4964422;28;20100;-94
2021/08/16 04:27:08;;;;;;;8.98;3.20;;;;;;;20.73;82.24;92424.50;4977689;28;20098;-93
2021/08/16 04:29:51;;;;;;;7.00;3.70;;;;;;;20.72;82.62;92433.63;4947414;28;20043;-95
2021/08/16 04:32:24;;;;;;;8.52;2.83;;;;;;;20.66;83.91;92436.91;4946455;28;20043;-94
2021/08/16 04:35:08;;;;;;;8.73;4.40;;;;;;;20.62;83.90;92433.41;4947862;28;20051;-92
2021/08/16 04:37:49;;;;;;;6.30;3.60;;;;;;;20.59;84.47;92419.69;4947408;28;20047;-93
2021/08/16 04:40:52;;;;;;;;;;;;;;;;;;;;;
2021/08/16 04:43:38;;;;;;;4.63;3.05;;;;;;;20.66;83.65;92428.94;4946871;28;20286;-95
2021/08/16 04:46:14;;;;;;;3.72;2.35;;;;;;;20.43;84.36;92437.56;4945665;28;20163;-93
2021/08/16 04:49:15;;;;;;;;;;;;;;;;;;;;;
2021/08/16 04:51:59;;;;;;;4.32;2.60;;;;;;;20.25;83.34;92442.50;4986705;28;20034;-93
2021/08/16 04:54:44;;;;;;;;;;;;;;;;;;;;;
2021/08/16 04:57:19;;;;;;;5.35;3.15;;;;;;;20.25;84.78;92452.38;4985538;28;20042;-94
2021/08/16 05:00:11;;;;;;;7.65;3.92;;;;;;;20.25;84.86;92460.34;4964045;28;20543;-93
2021/08/16 05:03:02;;;;;;;8.07;4.00;;;;;;;20.25;84.76;92458.44;4989916;28;20064;-93
2021/08/16 05:05:45;;;;;;;7.90;3.53;;;;;;;20.30;86.01;92449.44;4999934;28;20045;-94
2021/08/16 05:08:19;;;;;;;11.75;3.35;;;;;;;20.32;84.66;92447.22;4998820;28;20096;-93
2021/08/16 05:11:07;;;;;;;5.72;3.47;;;;;;;20.37;82.16;92444.28;5014671;28;20042;-93
2021/08/16 05:17:20;;;;;;;4.38;2.63;;;;;;;20.30;83.14;92446.78;5000156;28;20046;-92
2021/08/16 05:19:55;;;;;;;3.85;2.28;;;;;;;20.26;84.76;92448.59;4998208;28;20050;-92
2021/08/16 05:22:24;;;;;;;6.10;2.72;;;;;;;20.18;84.56;92448.44;5013886;28;20045;-93
2021/08/16 05:24:57;;;;;;;3.87;2.30;;;;;;;20.18;84.50;92455.66;4997772;28;20038;-92
2021/08/16 05:27:25;;;;;;;7.90;3.85;;;;;;;20.20;84.14;92461.38;4998035;28;20758;-92
2021/08/16 05:30:04;;;;;;;;;;;;;;;;;;;;;
2021/08/16 05:32:46;;;;;;;8.45;3.17;;;;;;;20.21;82.41;92472.78;5014102;28;20057;-92
2021/08/16 05:35:18;;;;;;;6.53;3.72;;;;;;;20.21;81.88;92467.47;5014995;28;20097;-94
2021/08/16 05:37:59;;;;;;;5.82;2.63;;;;;;;20.25;81.76;92468.31;5013868;28;20052;-94
2021/08/16 05:40:45;;;;;;;8.07;3.35;;;;;;;20.25;80.86;92457.69;5014069;28;20061;-94
2021/08/16 05:43:21;;;;;;;8.95;3.67;;;;;;;20.25;79.95;92452.38;4998484;28;20060;-93
2021/08/16 05:45:57;;;;;;;9.45;3.70;;;;;;;20.27;79.95;92460.78;4996342;28;20048;-92
2021/08/16 05:48:34;;;;;;;5.50;2.40;;;;;;;20.24;79.61;92456.94;4997870;28;20108;-92
2021/08/16 05:51:12;;;;;;;4.82;2.85;;;;;;;20.25;79.74;92466.44;5013434;28;20045;-92
2021/08/16 05:53:50;;;;;;;6.25;3.22;;;;;;;20.19;79.87;92478.44;4998132;28;20522;-92
2021/08/16 05:56:21;;;;;;;3.28;2.38;;;;;;;20.25;81.09;92484.25;4998563;28;20080;-91
2021/08/16 05:58:57;;;;;;;5.73;3.47;;;;;;;20.15;81.54;92469.59;5011120;28;20069;-92
2021/08/16 06:01:54;;;;;;;4.43;2.45;;;;;;;20.26;81.68;92477.81;4979679;28;20046;-91
2021/08/16 06:04:24;;;;;;;4.82;2.90;;;;;;;20.35;80.99;92478.41;4994704;28;20057;-93
2021/08/16 06:07:03;;;;;;;;;;;;;;;;;;;;;
2021/08/16 06:09:44;;;;;;;3.55;2.28;;;;;;;20.68;81.04;92477.22;5016311;28;20483;-92
2021/08/16 06:12:10;;;;;;;5.45;2.70;;;;;;;20.89;80.54;92477.66;4982777;28;20046;-91
2021/08/16 06:14:43;;;;;;;3.67;2.30;;;;;;;21.03;79.99;92484.38;4998286;28;20040;-91
2021/08/16 06:17:36;;;;;;;;;;;;;;;;;;;;;
2021/08/16 06:20:12;;;;;;;4.20;2.33;;;;;;;21.55;77.46;92483.09;5000957;28;20081;-92
2021/08/16 06:22:43;;;;;;;5.35;3.53;;;;;;;21.85;76.21;92475.19;5014526;28;20045;-92
2021/08/16 06:25:45;;;;;;;6.32;3.15;;;;;;;21.78;74.05;92473.19;5015027;28;20550;-94
2021/08/16 06:32:55;;;;;;;;;;;;;;;22.12;72.09;92488.56;4975797;28;20097;-95
2021/08/16 06:39:34;;;;;;;;;;;;;;;;;;;;;
2021/08/16 06:42:20;;;;;;;7.13;2.83;;;;;;;23.01;71.30;92475.69;4937386;28;20810;-93
2021/08/16 06:48:25;;;;;;;10.93;3.05;;;;;;;23.39;69.69;92482.59;5026531;22;20056;-80
2021/08/16 06:50:51;;;;;;;15.23;2.13;;;;;;;24.38;68.74;92475.06;4992211;28;20043;-80
2021/08/16 06:53:17;;;;;;;5.50;2.50;;;;;;;24.60;68.08;92484.78;4972933;28;20045;-80
2021/08/16 06:55:44;;;;;;;6.13;3.17;;;;;;;25.24;65.17;92465.59;4994073;28;20054;-84
2021/08/16 06:58:10;;;;;;;15.15;3.08;;;;;;;24.69;64.10;92463.03;4979623;28;20054;-84
2021/08/16 07:00:39;;;;;;;9.25;2.88;;;;;;;25.28;63.81;92468.25;4997423;28;20054;-84
2021/08/16 07:03:05;;;;;;;4.72;2.30;;;;;;;25.49;62.94;92462.97;5000774;28;20052;-84
2021/08/16 07:05:31;;;;;;;4.70;2.30;;;;;;;24.62;63.31;92468.34;5006871;28;20027;-84
2021/08/16 07:07:57;;;;;;;4.88;1.75;;;;;;;23.95;66.46;92467.47;4979739;28;20050;-83
2021/08/16 07:10:23;;;;;;;11.27;3.72;;;;;;;23.28;69.56;92471.03;4981804;28;20034;-83
2021/08/16 07:12:49;;;;;;;4.78;2.85;;;;;;;23.24;70.50;92464.91;4978701;28;20108;-85
2021/08/16 07:15:14;;;;;;;5.50;2.28;;;;;;;23.11;70.18;92471.63;4996649;28;20030;-85
2021/08/16 07:17:40;;;;;;;4.85;2.67;;;;;;;23.17;69.51;92470.94;4995761;28;20051;-84
2021/08/16 07:20:09;;;;;;;4.72;2.72;;;;;;;22.79;68.14;92461.31;4987605;28;20048;-83
2021/08/16 07:22:34;;;;;;;4.05;2.63;;;;;;;22.87;68.00;92462.91;4995277;28;20054;-84
2021/08/16 07:25:00;;;;;;;5.65;2.95;;;;;;;22.54;70.97;92463.66;4995488;28;20050;-83
2021/08/16 07:27:26;;;;;;;4.95;2.88;;;;;;;22.71;71.07;92460.44;4978953;28;20400;-84
2021/08/16 07:29:51;;;;;;;4.82;2.60;;;;;;;23.15;70.53;92464.44;4983793;28;20046;-84
2021/08/16 07:32:17;;;;;;;4.47;2.60;;;;;;;23.27;70.61;92459.59;4976901;28;20508;-84
2021/08/16 07:34:43;;;;;;;2.97;2.15;;;;;;;23.48;71.38;92453.72;4978153;28;20034;-83
2021/08/16 07:37:11;;;;;;;4.63;2.38;;;;;;;23.70;69.84;92445.88;4963828;28;20519;-82
2021/08/16 07:39:37;;;;;;;5.13;2.30;;;;;;;23.03;69.18;92455.53;4983878;28;20037;-83
2021/08/16 07:42:03;;;;;;;8.68;3.10;;;;;;;23.34;69.35;92450.13;4982563;28;20060;-82
2021/08/16 07:44:29;;;;;;;5.32;3.03;;;;;;;23.02;71.66;92453.97;4984395;28;20034;-81
2021/08/16 07:46:56;;;;;;;6.15;2.67;;;;;;;22.77;70.55;92453.66;5000959;28;20076;-83
2021/08/16 07:49:22;;;;;;;5.55;2.28;;;;;;;23.54;69.29;92451.47;5000911;28;20064;-83
2021/08/16 07:51:48;;;;;;;7.03;3.08;;;;;;;23.85;69.65;92442.22;5019904;28;20050;-83
2021/08/16 07:54:14;;;;;;;3.67;1.85;;;;;;;23.52;70.92;92444.94;4990225;28;20069;-80
2021/08/16 07:56:39;;;;;;;4.65;2.45;;;;;;;23.78;70.49;92444.84;4981759;28;20050;-80
2021/08/16 07:59:05;;;;;;;5.45;2.53;;;;;;;24.10;70.03;92438.97;4982362;28;20129;-79
2021/08/16 08:01:31;;;;;;;8.10;2.75;;;;;;;24.15;69.61;92433.25;5015577;28;20037;-79
2021/08/16 08:03:56;;;;;;;5.50;2.47;;;;;;;24.28;69.89;92433.72;5019165;28;20104;-79
2021/08/16 08:06:22;;;;;;;5.57;2.35;;;;;;;24.52;69.09;92438.47;4969833;28;20472;-81
2021/08/16 08:08:48;;;;;;;4.32;2.50;;;;;;;24.63;68.13;92438.53;5010445;28;20578;-81
2021/08/16 08:11:13;;;;;;;5.70;2.60;;;;;;;24.54;69.14;92440.78;5001551;28;20046;-81
2021/08/16 08:13:39;;;;;;;3.63;2.30;;;;;;;24.54;68.83;92440.00;5020126;28;20045;-81
2021/08/16 08:16:05;;;;;;;8.98;3.03;;;;;;;24.38;69.33;92434.94;5001399;28;20062;-81
2021/08/16 08:18:30;;;;;;;5.70;2.80;;;;;;;24.20;70.49;92437.50;4985862;28;20117;-80
2021/08/16 08:21:03;;;;;;;5.35;2.63;;;;;;;23.74;70.80;92438.66;4998786;28;20053;-80
2021/08/16 08:23:29;;;;;;;4.43;2.60;;;;;;;23.17;73.63;92448.78;5008873;28;20046;-80
2021/08/16 08:25:54;;;;;;;5.18;2.65;;;;;;;22.40;77.02;92451.69;5000446;28;20678;-79
2021/08/16 08:28:20;;;;;;;5.28;3.33;;;;;;;22.73;74.74;92452.84;5018085;28;20045;-81
2021/08/16 08:30:46;;;;;;;3.95;2.67;;;;;;;23.18;74.18;92451.09;4984871;28;20037;-81
2021/08/16 08:33:12;;;;;;;5.05;2.60;;;;;;;23.52;71.79;92455.63;5000435;28;20045;-79
2021/08/16 08:35:38;;;;;;;4.55;2.55;;;;;;;23.81;72.04;92454.78;5020134;28;20064;-80
2021/08/16 08:38:04;;;;;;;7.47;2.75;;;;;;;23.72;71.23;92458.88;4979291;28;20125;-80
2021/08/16 08:40:30;;;;;;;4.55;2.97;;;;;;;23.13;73.80;92464.03;4998783;28;20072;-79
2021/08/16 08:42:56;;;;;;;5.28;2.75;;;;;;;23.60;72.41;92459.91;4981874;28;20058;-78
2021/08/16 08:45:25;;;;;;;5.40;2.47;;;;;;;23.75;70.96;92453.56;4980816;28;20043;-81
2021/08/16 08:47:51;;;;;;;4.38;2.50;;;;;;;23.87;70.74;92449.88;5004704;28;20053;-80
2021/08/16 08:50:18;;;;;;;5.22;3.13;;;;;;;24.20;71.93;92446.28;5016023;28;20053;-80
2021/08/16 08:52:45;;;;;;;4.35;2.67;;;;;;;24.99;68.24;92441.34;4997818;28;20073;-79
2021/08/16 08:55:12;;;;;;;4.97;2.75;;;;;;;25.16;65.96;92444.47;5000559;28;20049;-79
2021/08/16 08:57:39;;;;;;;4.25;2.55;;;;;;;25.62;66.55;92444.59;5012456;28;20046;-80
2021/08/16 09:00:07;;;;;;;5.32;2.80;;;;;;;25.37;66.78;92438.44;5000007;28;20100;-81
2021/08/16 09:02:33;;;;;;;4.18;3.03;;;;;;;25.20;67.81;92440.69;4998289;28;20050;-79
2021/08/16 09:05:01;;;;;;;4.35;2.90;;;;;;;24.90;66.55;92443.59;4997006;28;20063;-80
2021/08/16 09:07:30;;;;;;;4.95;3.00;;;;;;;25.03;67.44;92433.34;4963731;28;20137;-79
2021/08/16 09:09:56;;;;;;;5.32;2.97;;;;;;;24.46;69.12;92436.50;4983130;28;20054;-80
2021/08/16 09:12:30;;;;;;;5.05;3.15;;;;;;;24.48;66.92;92437.69;5014937;28;20049;-78
2021/08/16 09:14:56;;;;;;;13.13;3.50;;;;;;;24.88;67.34;92432.50;4988883;28;20034;-79
2021/08/16 09:17:33;;;;;;;4.35;2.85;;;;;;;24.84;67.78;92431.75;4979210;28;20038;-80
2021/08/16 09:20:00;;;;;;;4.22;2.47;;;;;;;25.04;67.44;92429.50;4981558;28;20042;-79
2021/08/16 09:22:36;;;;;;;9.80;3.78;;;;;;;25.12;67.21;92433.75;4980330;28;20034;-80
2021/08/16 09:25:06;;;;;;;5.13;2.88;;;;;;;24.65;68.86;92424.78;4979275;28;20113;-79
2021/08/16 09:27:33;;;;;;;5.90;2.60;;;;;;;25.11;68.28;92424.19;4996497;28;20057;-79
2021/08/16 09:29:59;;;;;;;7.18;3.80;;;;;;;24.27;70.50;92427.63;4998422;28;20531;-79
2021/08/16 09:32:33;;;;;;;3.90;2.50;;;;;;;24.02;70.29;92421.31;5000455;28;20050;-80
2021/08/16 09:35:06;;;;;;;5.22;2.95;;;;;;;24.61;66.61;92419.41;5000147;28;20551;-80
2021/08/16 09:37:32;;;;;;;5.55;3.67;;;;;;;25.03;67.05;92418.03;4979630;28;20050;-80
2021/08/16 09:40:11;;;;;;;4.95;3.03;;;;;;;24.48;68.81;92420.88;4998738;28;20026;-79
2021/08/16 09:42:44;;;;;;;4.80;2.28;;;;;;;24.78;67.95;92412.59;4997293;28;20097;-81
2021/08/16 09:45:13;;;;;;;6.88;3.40;;;;;;;24.31;68.17;92411.56;4997810;28;20034;-81
2021/08/16 09:47:41;;;;;;;5.72;2.92;;;;;;;24.68;67.23;92408.75;4983225;28;20042;-80
2021/08/16 09:50:07;;;;;;;5.13;3.10;;;;;;;24.83;67.90;92406.09;4996634;28;20050;-80
2021/08/16 09:52:33;;;;;;;4.07;2.85;;;;;;;24.82;66.93;92397.31;4997372;28;20602;-81
2021/08/16 09:54:59;;;;;;;6.68;3.53;;;;;;;24.60;66.47;92396.47;4997737;28;20056;-80
2021/08/16 09:57:27;;;;;;;7.68;3.38;;;;;;;24.46;68.98;92397.13;4996881;28;20038;-80
2021/08/16 09:59:56;;;;;;;5.32;2.80;;;;;;;25.09;66.09;92400.47;4994189;28;20038;-80
2021/08/16 10:02:26;;;;;;;4.57;3.13;;;;;;;24.80;65.10;92390.81;4982018;28;20042;-80
2021/08/16 10:04:57;;;;;;;4.57;3.03;;;;;;;24.79;67.00;92392.72;4978173;28;20101;-81
2021/08/16 10:07:28;;;;;;;5.40;3.07;;;;;;;25.09;63.61;92389.75;4981199;28;20046;-82
2021/08/16 10:09:57;;;;;;;5.38;2.45;;;;;;;24.87;64.86;92388.16;4979680;28;20293;-81
2021/08/16 10:12:24;;;;;;;4.13;2.45;;;;;;;24.95;63.85;92387.03;4991922;28;20092;-79
2021/08/16 10:14:51;;;;;;;5.68;3.17;;;;;;;25.25;62.87;92383.31;4983740;28;20043;-81
2021/08/16 10:17:22;;;;;;;5.05;3.03;;;;;;;25.05;62.36;92383.63;4977411;28;20046;-81
2021/08/16 10:19:52;;;;;;;4.38;2.67;;;;;;;24.98;63.24;92378.25;4978540;28;20479;-80
2021/08/16 10:22:18;;;;;;;6.38;3.25;;;;;;;25.34;62.02;92383.69;4977313;28;20045;-80
2021/08/16 10:24:43;;;;;;;4.72;2.60;;;;;;;25.07;60.77;92380.56;4978040;28;20030;-81
2021/08/16 10:27:10;;;;;;;12.75;3.40;;;;;;;25.15;61.91;92366.03;4976164;28;20089;-80
2021/08/16 10:29:38;;;;;;;5.88;3.22;;;;;;;24.90;57.98;92376.69;4970797;28;20038;-81
2021/08/16 10:32:09;;;;;;;9.93;2.88;;;;;;;25.49;61.24;92373.78;4975830;28;20042;-80
2021/08/16 10:34:36;;;;;;;7.15;3.53;;;;;;;25.54;57.19;92360.00;4976198;28;20496;-80
2021/08/16 10:37:10;;;;;;;6.72;2.88;;;;;;;25.98;56.64;92358.81;4975768;28;20434;-80
2021/08/16 10:39:38;;;;;;;5.47;2.72;;;;;;;26.57;55.84;92348.34;4981863;28;20404;-80
2021/08/16 10:42:17;;;;;;;8.90;2.50;;;;;;;25.93;58.71;92349.25;4994960;28;20057;-81
2021/08/16 10:44:50;;;;;;;6.20;2.75;;;;;;;25.96;57.59;92340.47;4994994;28;20046;-80
2021/08/16 10:47:33;;;;;;;9.88;4.00;;;;;;;25.29;57.33;92335.88;4978604;28;20488;-80
2021/08/16 10:50:12;;;;;;;5.38;3.05;;;;;;;25.60;58.40;92331.66;5015022;28;20050;-80
2021/08/16 10:52:40;;;;;;;5.57;2.85;;;;;;;25.90;57.55;92322.47;5014216;28;20049;-80
2021/08/16 10:55:17;;;;;;;4.18;2.17;;;;;;;26.14;56.74;92316.28;5005380;28;20033;-81
2021/08/16 10:57:44;;;;;;;8.63;3.17;;;;;;;26.07;56.60;92320.88;4994947;28;20062;-81
2021/08/16 11:00:14;;;;;;;4.90;2.67;;;;;;;25.76;55.67;92320.53;4994448;28;20043;-81
2021/08/16 11:02:41;;;;;;;8.18;3.13;;;;;;;25.39;57.57;92308.31;4979606;28;20046;-81
2021/08/16 11:05:11;;;;;;;7.40;3.10;;;;;;;25.36;58.05;92305.63;4994833;28;20070;-80
2021/08/16 11:07:40;;;;;;;8.73;3.08;;;;;;;25.46;57.87;92305.63;4995381;28;20058;-79
2021/08/16 11:10:08;;;;;;;6.75;2.80;;;;;;;25.60;57.87;92293.34;4996620;28;20034;-80
2021/08/16 11:12:43;;;;;;;5.30;2.30;;;;;;;25.82;54.00;92289.50;4995315;28;20065;-80
2021/08/16 11:15:14;;;;;;;14.95;3.00;;;;;;;26.06;59.37;92289.88;4979723;28;20118;-81
2021/08/16 11:17:40;;;;;;;5.60;2.50;;;;;;;25.20;58.32;92289.94;4971585;28;20054;-82
2021/08/16 11:20:13;;;;;;;3.58;2.30;;;;;;;25.62;57.80;92289.13;5003960;28;20061;-81
2021/08/16 11:22:44;;;;;;;3.63;2.20;;;;;;;25.89;57.24;92284.13;5008740;28;20535;-79
2021/08/16 11:25:12;;;;;;;6.60;2.53;;;;;;;25.51;57.45;92275.00;5002203;28;20042;-80
2021/08/16 11:27:43;;;;;;;8.57;2.97;;;;;;;25.71;55.09;92269.97;5000838;28;20034;-80
2021/08/16 11:30:10;;;;;;;5.03;2.80;;;;;;;26.03;53.87;92261.13;5001691;28;20073;-80
2021/08/16 11:32:37;;;;;;;3.90;2.42;;;;;;;25.66;56.22;92260.41;5012952;28;20046;-81
2021/08/16 11:35:05;;;;;;;5.95;2.75;;;;;;;25.50;57.26;92252.03;5022050;28;20038;-80
2021/08/16 11:37:34;;;;;;;6.90;2.75;;;;;;;25.47;56.16;92258.19;5000179;28;20567;-80
2021/08/16 11:40:00;;;;;;;5.03;3.45;;;;;;;25.58;55.60;92252.78;5001774;28;20092;-80
2021/08/16 11:42:27;;;;;;;8.15;2.72;;;;;;;25.84;55.85;92244.28;4984076;28;20038;-80
2021/08/16 11:45:02;;;;;;;3.22;1.88;;;;;;;25.43;58.49;92239.41;5001710;28;20037;-80
2021/08/16 11:47:30;;;;;;;15.48;4.22;;;;;;;25.47;58.68;92239.41;5006662;28;20131;-80
2021/08/16 11:50:16;;;;;;;6.78;2.83;;;;;;;25.67;57.92;92234.38;5020896;28;20100;-80
2021/08/16 11:52:42;;;;;;;6.47;2.53;;;;;;;26.23;56.47;92227.34;5021442;28;20068;-80
2021/08/16 11:55:09;;;;;;;4.30;2.83;;;;;;;26.73;55.57;92221.72;5022643;28;20467;-80
2021/08/16 11:57:36;;;;;;;4.43;2.63;;;;;;;27.10;53.58;92217.63;5021540;28;20041;-80
2021/08/16 12:00:04;;;;;;;6.85;2.83;;;;;;;26.94;54.70;92209.31;5021284;28;20134;-80
2021/08/16 12:02:41;;;;;;;5.30;2.97;;;;;;;26.47;51.33;92203.44;5021982;28;20049;-80
2021/08/16 12:05:08;;;;;;;4.10;2.70;;;;;;;26.77;52.26;92190.25;5021341;28;20048;-80
2021/08/16 12:07:33;;;;;;;4.10;2.33;;;;;;;26.78;52.92;92191.78;5020980;28;20098;-80
2021/08/16 12:09:59;;;;;;;7.15;3.22;;;;;;;26.80;54.54;92175.28;5021464;28;20069;-80
2021/08/16 12:12:29;;;;;;;10.18;2.50;;;;;;;26.79;51.62;92166.47;5021550;28;20045;-80
2021/08/16 12:15:14;;;;;;;9.13;2.90;;;;;;;27.04;52.27;92159.34;5021162;28;20103;-80
2021/08/16 12:17:41;;;;;;;8.27;2.63;;;;;;;27.14;52.64;92148.50;5001837;28;20054;-80
2021/08/16 12:20:12;;;;;;;9.13;2.70;;;;;;;26.73;53.05;92137.75;4984234;28;20496;-80
2021/08/16 12:22:53;;;;;;;7.07;2.38;;;;;;;26.52;54.10;92144.00;5001358;28;20177;-80
2021/08/16 12:25:19;;;;;;;4.25;2.30;;;;;;;26.69;53.62;92134.31;5001943;28;20052;-80
2021/08/16 12:27:53;;;;;;;5.47;2.35;;;;;;;25.88;54.53;92137.84;4980706;28;20038;-80
2021/08/16 12:30:19;;;;;;;7.05;2.45;;;;;;;26.27;54.53;92138.78;4998451;28;20416;-80
2021/08/16 12:32:45;;;;;;;4.38;2.33;;;;;;;26.04;55.29;92150.78;4997249;28;20046;-80
2021/08/16 12:35:19;;;;;;;4.57;2.53;;;;;;;25.95;54.45;92153.91;4998157;28;20054;-80
2021/08/16 12:37:47;;;;;;;4.38;2.53;;;;;;;25.59;54.75;92152.50;5007918;28;20057;-80
2021/08/16 12:40:19;;;;;;;7.20;3.22;;;;;;;25.80;55.10;92147.03;5000426;28;20041;-80
2021/08/16 12:42:56;;;;;;;8.00;2.38;;;;;;;25.44;56.68;92136.44;5017982;28;20064;-80
2021/08/16 12:45:22;;;;;;;5.45;2.65;;;;;;;25.25;55.85;92150.28;5017678;28;20527;-80
2021/08/16 12:47:58;;;;;;;7.50;2.80;;;;;;;25.50;55.30;92147.53;5015174;28;20140;-80
2021/08/16 12:50:23;;;;;;;4.85;2.13;;;;;;;25.51;55.10;92155.19;5018092;28;20050;-80
2021/08/16 12:52:49;;;;;;;10.18;3.58;;;;;;;25.59;54.39;92152.50;5017426;28;20052;-80
2021/08/16 12:55:14;;;;;;;7.13;2.97;;;;;;;25.49;54.33;92154.81;5018110;28;20053;-80